PWSweather.com
Personal Weather Stations
Station Observations

YeovilGB

Lat: 50.949, Lon: -2.627

Elevation: 70

Station Type: Vantage Pro

http://www.yeovil-weather.me.uk/

Latest ConditionsUpdated 8:10:05 AM GMT Monday, Nov 19, 2018
Currently Today's Max Today's Min Today's Average
Temperature 43.8°F6.6°C 43.8°F6.6°C 39.9°F4.4°C 41.5°F5.3°C
Dew Point 38.0°F3.3°C 38.3°F3.5°C 34.9°F1.6°C 36.4°F2.4°C
Winds 1.2 mph NNE1.9 kmh NNE 4.6 mph -7.4 kmh - - 2.0 mph 3.2 kmh
Wind Gusts 3.5 mph5.6 kmh 13.8 mph22.2 kmh - -
Humidity 80% 85% 79% 82%
Pressure 30.16 in1021.3 mb 30.23 in1023.7 mb 30.16 in1021.3 mb -
Hour Temp Dew Point Humidity Winds Wind Gusts Pressure Precip Precip Rate Daily Precip Total
08:10 AM 43.8°F6.6°C 38.0°F3.3°C 80% 1.2 mph NNE1.9 kmh NNE 3.5 mph5.6 kmh 30.16 in1021.3 mb - 0.00 in0.0 mm 0.00 in0.0 mm
08:00 AM 43.6°F6.4°C 37.9°F3.3°C 80% 1.2 mph NE1.9 kmh NE 5.8 mph9.3 kmh 30.16 in1021.3 mb - 0.00 in0.0 mm 0.00 in0.0 mm
07:50 AM 43.6°F6.4°C 37.8°F3.2°C 80% 2.3 mph N3.7 kmh N 2.3 mph3.7 kmh 30.16 in1021.3 mb - 0.00 in0.0 mm 0.00 in0.0 mm
07:40 AM 43.6°F6.4°C 37.8°F3.2°C 80% 3.5 mph NE5.6 kmh NE 6.9 mph11.1 kmh 30.16 in1021.3 mb - 0.00 in0.0 mm 0.00 in0.0 mm
07:30 AM 43.5°F6.4°C 38.1°F3.4°C 81% 2.3 mph NE3.7 kmh NE 9.2 mph14.8 kmh 30.16 in1021.3 mb - 0.00 in0.0 mm 0.00 in0.0 mm
07:20 AM 43.3°F6.3°C 38.2°F3.4°C 82% 1.2 mph NE1.9 kmh NE 5.8 mph9.3 kmh 30.17 in1021.7 mb - 0.00 in0.0 mm 0.00 in0.0 mm
07:10 AM 42.8°F6.0°C 38.3°F3.5°C 84% 2.3 mph NE3.7 kmh NE 8.1 mph13.0 kmh 30.17 in1021.7 mb - 0.00 in0.0 mm 0.00 in0.0 mm
07:00 AM 42.7°F5.9°C 38.2°F3.4°C 84% 3.5 mph NNE5.6 kmh NNE 10.4 mph16.7 kmh 30.16 in1021.3 mb - 0.00 in0.0 mm 0.00 in0.0 mm
06:50 AM 42.5°F5.8°C 38.3°F3.5°C 85% 1.2 mph NE1.9 kmh NE 4.6 mph7.4 kmh 30.16 in1021.3 mb - 0.00 in0.0 mm 0.00 in0.0 mm
06:40 AM 42.3°F5.7°C 38.1°F3.4°C 85% 1.2 mph NE1.9 kmh NE 5.8 mph9.3 kmh 30.16 in1021.3 mb - 0.00 in0.0 mm 0.00 in0.0 mm
06:30 AM 42.1°F5.6°C 37.9°F3.3°C 85% Calm Calm 3.5 mph5.6 kmh 30.17 in1021.7 mb - 0.00 in0.0 mm 0.00 in0.0 mm
06:20 AM 41.9°F5.5°C 37.7°F3.2°C 85% Calm Calm 6.9 mph11.1 kmh 30.16 in1021.3 mb - 0.00 in0.0 mm 0.00 in0.0 mm
06:10 AM 41.5°F5.3°C 37.3°F2.9°C 85% 2.3 mph NE3.7 kmh NE 11.5 mph18.5 kmh 30.17 in1021.7 mb - 0.00 in0.0 mm 0.00 in0.0 mm
06:00 AM 41.3°F5.2°C 37.2°F2.9°C 85% 2.3 mph NE3.7 kmh NE 6.9 mph11.1 kmh 30.17 in1021.7 mb - 0.00 in0.0 mm 0.00 in0.0 mm
05:50 AM 41.2°F5.1°C 36.7°F2.6°C 84% 1.2 mph NE1.9 kmh NE 6.9 mph11.1 kmh 30.17 in1021.7 mb - 0.00 in0.0 mm 0.00 in0.0 mm
05:40 AM 40.9°F4.9°C 36.8°F2.7°C 85% 3.5 mph NNE5.6 kmh NNE 10.4 mph16.7 kmh 30.17 in1021.7 mb - 0.00 in0.0 mm 0.00 in0.0 mm
05:30 AM 40.6°F4.8°C 36.4°F2.4°C 85% 2.3 mph NE3.7 kmh NE 12.7 mph20.4 kmh 30.17 in1021.7 mb - 0.00 in0.0 mm 0.00 in0.0 mm
05:20 AM 40.2°F4.6°C 36.0°F2.2°C 85% 4.6 mph NNE7.4 kmh NNE 13.8 mph22.2 kmh 30.17 in1021.7 mb - 0.00 in0.0 mm 0.00 in0.0 mm
05:10 AM 39.9°F4.4°C 35.8°F2.1°C 85% 3.5 mph NNE5.6 kmh NNE 10.4 mph16.7 kmh 30.18 in1022.0 mb - 0.00 in0.0 mm 0.00 in0.0 mm
05:00 AM 40.0°F4.4°C 35.6°F2.0°C 84% 2.3 mph NNE3.7 kmh NNE 4.6 mph7.4 kmh 30.18 in1022.0 mb - 0.00 in0.0 mm 0.00 in0.0 mm
04:50 AM 40.0°F4.4°C 35.6°F2.0°C 84% 3.5 mph NNE5.6 kmh NNE 8.1 mph13.0 kmh 30.18 in1022.0 mb - 0.00 in0.0 mm 0.00 in0.0 mm
04:40 AM 40.2°F4.6°C 35.8°F2.1°C 84% 3.5 mph NE5.6 kmh NE 9.2 mph14.8 kmh 30.18 in1022.0 mb - 0.00 in0.0 mm 0.00 in0.0 mm
04:30 AM 40.2°F4.6°C 35.5°F1.9°C 83% 2.3 mph NNE3.7 kmh NNE 8.1 mph13.0 kmh 30.18 in1022.0 mb - 0.00 in0.0 mm 0.00 in0.0 mm
04:20 AM 40.3°F4.6°C 35.5°F1.9°C 83% 3.5 mph NNE5.6 kmh NNE 5.8 mph9.3 kmh 30.18 in1022.0 mb - 0.00 in0.0 mm 0.00 in0.0 mm
04:10 AM 40.3°F4.6°C 35.2°F1.8°C 82% 4.6 mph NNE7.4 kmh NNE 9.2 mph14.8 kmh 30.18 in1022.0 mb - 0.00 in0.0 mm 0.00 in0.0 mm
04:00 AM 40.2°F4.6°C 35.2°F1.8°C 82% 4.6 mph NE7.4 kmh NE 11.5 mph18.5 kmh 30.19 in1022.4 mb - 0.00 in0.0 mm 0.00 in0.0 mm
03:50 AM 40.3°F4.6°C 34.9°F1.6°C 81% 1.2 mph N1.9 kmh N 8.1 mph13.0 kmh 30.19 in1022.4 mb - 0.00 in0.0 mm 0.00 in0.0 mm
03:40 AM 40.3°F4.6°C 34.9°F1.6°C 81% 3.5 mph NNE5.6 kmh NNE 6.9 mph11.1 kmh 30.19 in1022.4 mb - 0.00 in0.0 mm 0.00 in0.0 mm
03:30 AM 40.5°F4.7°C 35.1°F1.7°C 81% 2.3 mph NNE3.7 kmh NNE 9.2 mph14.8 kmh 30.19 in1022.4 mb - 0.00 in0.0 mm 0.00 in0.0 mm
03:20 AM 40.7°F4.8°C 35.0°F1.7°C 80% 1.2 mph NNE1.9 kmh NNE 4.6 mph7.4 kmh 30.19 in1022.4 mb - 0.00 in0.0 mm 0.00 in0.0 mm
03:10 AM 41.0°F5.0°C 35.3°F1.8°C 80% 2.3 mph NNE3.7 kmh NNE 8.1 mph13.0 kmh 30.20 in1022.7 mb - 0.00 in0.0 mm 0.00 in0.0 mm
03:00 AM 41.1°F5.1°C 35.4°F1.9°C 80% 1.2 mph NNE1.9 kmh NNE 8.1 mph13.0 kmh 30.20 in1022.7 mb - 0.00 in0.0 mm 0.00 in0.0 mm
02:50 AM 41.1°F5.1°C 35.4°F1.9°C 80% 1.2 mph NNE1.9 kmh NNE 6.9 mph11.1 kmh 30.20 in1022.7 mb - 0.00 in0.0 mm 0.00 in0.0 mm
02:40 AM 41.2°F5.1°C 35.5°F1.9°C 80% 2.3 mph NE3.7 kmh NE 6.9 mph11.1 kmh 30.20 in1022.7 mb - 0.00 in0.0 mm 0.00 in0.0 mm
02:30 AM 41.0°F5.0°C 35.3°F1.8°C 80% 1.2 mph NE1.9 kmh NE 6.9 mph11.1 kmh 30.21 in1023.0 mb - 0.00 in0.0 mm 0.00 in0.0 mm
02:20 AM 40.9°F4.9°C 35.2°F1.8°C 80% 1.2 mph NE1.9 kmh NE 3.5 mph5.6 kmh 30.21 in1023.0 mb - 0.00 in0.0 mm 0.00 in0.0 mm
02:10 AM 41.0°F5.0°C 35.3°F1.8°C 80% 1.2 mph ENE1.9 kmh ENE 4.6 mph7.4 kmh 30.21 in1023.0 mb - 0.00 in0.0 mm 0.00 in0.0 mm
02:00 AM 41.1°F5.1°C 35.4°F1.9°C 80% 1.2 mph NE1.9 kmh NE 9.2 mph14.8 kmh 30.21 in1023.0 mb - 0.00 in0.0 mm 0.00 in0.0 mm
01:50 AM 41.2°F5.1°C 35.2°F1.8°C 79% Calm Calm 2.3 mph3.7 kmh 30.21 in1023.0 mb - 0.00 in0.0 mm 0.00 in0.0 mm
01:40 AM 41.4°F5.2°C 35.4°F1.9°C 79% 2.3 mph NNE3.7 kmh NNE 6.9 mph11.1 kmh 30.21 in1023.0 mb - 0.00 in0.0 mm 0.00 in0.0 mm
01:30 AM 41.7°F5.4°C 35.7°F2.1°C 79% Calm Calm -- 30.21 in1023.0 mb - 0.00 in0.0 mm 0.00 in0.0 mm
01:20 AM 41.8°F5.4°C 35.8°F2.1°C 79% Calm Calm 2.3 mph3.7 kmh 30.21 in1023.0 mb - 0.00 in0.0 mm 0.00 in0.0 mm
01:10 AM 41.9°F5.5°C 35.8°F2.1°C 79% 4.6 mph NNE7.4 kmh NNE 9.2 mph14.8 kmh 30.21 in1023.0 mb - 0.00 in0.0 mm 0.00 in0.0 mm
01:00 AM 42.0°F5.6°C 36.3°F2.4°C 80% 1.2 mph 1.9 kmh 6.9 mph11.1 kmh 30.22 in1023.4 mb - 0.00 in0.0 mm 0.00 in0.0 mm
12:50 AM 42.1°F5.6°C 36.4°F2.4°C 80% Calm Calm 1.2 mph1.9 kmh 30.22 in1023.4 mb - 0.00 in0.0 mm 0.00 in0.0 mm
12:40 AM 42.2°F5.7°C 36.8°F2.7°C 81% 4.6 mph N7.4 kmh N 8.1 mph13.0 kmh 30.22 in1023.4 mb - 0.00 in0.0 mm 0.00 in0.0 mm
12:30 AM 42.4°F5.8°C 37.0°F2.8°C 81% 1.2 mph NNE1.9 kmh NNE -- 30.23 in1023.7 mb - 0.00 in0.0 mm 0.00 in0.0 mm
12:20 AM 42.5°F5.8°C 37.1°F2.8°C 81% 1.2 mph NNE1.9 kmh NNE 3.5 mph5.6 kmh 30.22 in1023.4 mb - 0.00 in0.0 mm 0.00 in0.0 mm
12:00 AM 42.7°F5.9°C 37.3°F2.9°C 81% 1.2 mph NE1.9 kmh NE 5.8 mph9.3 kmh 30.23 in1023.7 mb - 0.00 in0.0 mm 0.00 in0.0 mm